sensor_id;sensor_type;location;lat;lon;timestamp;pressure;altitude;pressure_sealevel;temperature;humidity
73316;BME280;61545;53.726;-0.444;2023-04-27T00:03:06;1015.0;;;6.3;100.0
73316;BME280;61545;53.726;-0.444;2023-04-27T00:08:03;1015.0;;;6.2;100.0
73316;BME280;61545;53.726;-0.444;2023-04-27T00:12:55;1015.0;;;6.3;100.0
73316;BME280;61545;53.726;-0.444;2023-04-27T00:27:54;1015.0;;;6.5;100.0
73316;BME280;61545;53.726;-0.444;2023-04-27T00:37:59;1014.9;;;6.5;100.0
73316;BME280;61545;53.726;-0.444;2023-04-27T00:42:59;1014.9;;;6.4;100.0
73316;BME280;61545;53.726;-0.444;2023-04-27T00:47:58;1014.9;;;6.4;100.0
73316;BME280;61545;53.726;-0.444;2023-04-27T00:58:05;1014.8;;;6.5;100.0
73316;BME280;61545;53.726;-0.444;2023-04-27T01:03:05;1014.8;;;6.5;100.0
73316;BME280;61545;53.726;-0.444;2023-04-27T01:08:06;1014.7;;;6.2;100.0
73316;BME280;61545;53.726;-0.444;2023-04-27T01:17:57;1014.8;;;6.5;100.0
73316;BME280;61545;53.726;-0.444;2023-04-27T01:22:54;1014.7;;;6.4;100.0
73316;BME280;61545;53.726;-0.444;2023-04-27T01:27:54;1014.6;;;6.5;100.0
73316;BME280;61545;53.726;-0.444;2023-04-27T01:32:59;1014.6;;;6.3;100.0
73316;BME280;61545;53.726;-0.444;2023-04-27T01:37:55;1014.6;;;6.3;100.0
73316;BME280;61545;53.726;-0.444;2023-04-27T01:42:57;1014.5;;;6.2;100.0
73316;BME280;61545;53.726;-0.444;2023-04-27T01:47:54;1014.5;;;6.1;100.0
73316;BME280;61545;53.726;-0.444;2023-04-27T01:52:56;1014.6;;;6.0;100.0
73316;BME280;61545;53.726;-0.444;2023-04-27T01:57:57;1014.6;;;6.0;100.0
73316;BME280;61545;53.726;-0.444;2023-04-27T02:02:54;1014.6;;;6.0;100.0
73316;BME280;61545;53.726;-0.444;2023-04-27T02:07:58;1014.6;;;6.1;100.0
73316;BME280;61545;53.726;-0.444;2023-04-27T02:12:56;1014.5;;;6.0;100.0
73316;BME280;61545;53.726;-0.444;2023-04-27T02:17:57;1014.6;;;5.8;100.0
73316;BME280;61545;53.726;-0.444;2023-04-27T02:22:57;1014.6;;;5.7;100.0
73316;BME280;61545;53.726;-0.444;2023-04-27T02:27:57;1014.5;;;5.7;100.0
73316;BME280;61545;53.726;-0.444;2023-04-27T02:33:07;1014.6;;;5.9;100.0
73316;BME280;61545;53.726;-0.444;2023-04-27T02:38:08;1014.6;;;5.9;100.0
73316;BME280;61545;53.726;-0.444;2023-04-27T02:42:55;1014.6;;;5.7;100.0
73316;BME280;61545;53.726;-0.444;2023-04-27T02:47:56;1014.6;;;5.8;100.0
73316;BME280;61545;53.726;-0.444;2023-04-27T02:52:57;1014.6;;;5.9;100.0
73316;BME280;61545;53.726;-0.444;2023-04-27T02:57:56;1014.5;;;6.0;100.0
73316;BME280;61545;53.726;-0.444;2023-04-27T03:12:57;1014.5;;;6.0;100.0
73316;BME280;61545;53.726;-0.444;2023-04-27T03:17:56;1014.5;;;5.8;100.0
73316;BME280;61545;53.726;-0.444;2023-04-27T03:22:55;1014.5;;;6.0;100.0
73316;BME280;61545;53.726;-0.444;2023-04-27T03:27:57;1014.5;;;6.0;100.0
73316;BME280;61545;53.726;-0.444;2023-04-27T03:32:59;1014.5;;;5.8;100.0
73316;BME280;61545;53.726;-0.444;2023-04-27T03:37:56;1014.5;;;5.8;100.0
73316;BME280;61545;53.726;-0.444;2023-04-27T03:43:06;1014.5;;;5.9;100.0
73316;BME280;61545;53.726;-0.444;2023-04-27T03:47:57;1014.5;;;5.8;100.0
73316;BME280;61545;53.726;-0.444;2023-04-27T03:53:08;1014.5;;;5.9;100.0
73316;BME280;61545;53.726;-0.444;2023-04-27T03:58:19;1014.5;;;5.9;100.0
73316;BME280;61545;53.726;-0.444;2023-04-27T04:03:05;1014.6;;;5.8;100.0
73316;BME280;61545;53.726;-0.444;2023-04-27T04:08:07;1014.5;;;5.7;100.0
73316;BME280;61545;53.726;-0.444;2023-04-27T04:12:57;1014.5;;;5.7;100.0
73316;BME280;61545;53.726;-0.444;2023-04-27T04:17:57;1014.5;;;5.7;100.0
73316;BME280;61545;53.726;-0.444;2023-04-27T04:23:08;1014.5;;;5.5;100.0
73316;BME280;61545;53.726;-0.444;2023-04-27T04:28:07;1014.5;;;5.4;100.0
73316;BME280;61545;53.726;-0.444;2023-04-27T04:32:56;1014.4;;;5.2;100.0
73316;BME280;61545;53.726;-0.444;2023-04-27T04:37:56;1014.4;;;5.2;100.0
73316;BME280;61545;53.726;-0.444;2023-04-27T04:42:56;1014.3;;;5.2;100.0
73316;BME280;61545;53.726;-0.444;2023-04-27T04:52:54;1014.2;;;5.4;100.0
73316;BME280;61545;53.726;-0.444;2023-04-27T04:57:56;1014.2;;;5.2;100.0
73316;BME280;61545;53.726;-0.444;2023-04-27T05:02:56;1014.3;;;5.1;100.0
73316;BME280;61545;53.726;-0.444;2023-04-27T05:07:57;1014.3;;;5.2;100.0
73316;BME280;61545;53.726;-0.444;2023-04-27T05:12:54;1014.3;;;5.1;100.0
73316;BME280;61545;53.726;-0.444;2023-04-27T05:22:56;1014.3;;;5.5;100.0
73316;BME280;61545;53.726;-0.444;2023-04-27T05:27:54;1014.2;;;5.3;100.0
73316;BME280;61545;53.726;-0.444;2023-04-27T05:32:56;1014.2;;;5.2;100.0
73316;BME280;61545;53.726;-0.444;2023-04-27T05:37:57;1014.1;;;5.3;100.0
73316;BME280;61545;53.726;-0.444;2023-04-27T05:43:05;1014.2;;;5.5;100.0
73316;BME280;61545;53.726;-0.444;2023-04-27T05:47:56;1014.2;;;5.7;100.0
73316;BME280;61545;53.726;-0.444;2023-04-27T05:52:54;1014.3;;;5.7;100.0
73316;BME280;61545;53.726;-0.444;2023-04-27T05:58:00;1014.3;;;6.0;100.0
73316;BME280;61545;53.726;-0.444;2023-04-27T06:02:59;1014.3;;;6.2;100.0
73316;BME280;61545;53.726;-0.444;2023-04-27T06:07:54;1014.3;;;6.3;100.0
73316;BME280;61545;53.726;-0.444;2023-04-27T06:12:57;1014.3;;;6.4;100.0
73316;BME280;61545;53.726;-0.444;2023-04-27T06:22:56;1014.4;;;6.8;100.0
73316;BME280;61545;53.726;-0.444;2023-04-27T06:27:54;1014.3;;;7.0;100.0
73316;BME280;61545;53.726;-0.444;2023-04-27T06:33:05;1014.3;;;7.2;100.0
73316;BME280;61545;53.726;-0.444;2023-04-27T06:38:14;1014.3;;;7.1;100.0
73316;BME280;61545;53.726;-0.444;2023-04-27T06:43:06;1014.2;;;7.2;100.0
73316;BME280;61545;53.726;-0.444;2023-04-27T06:48:08;1014.2;;;7.5;100.0
73316;BME280;61545;53.726;-0.444;2023-04-27T06:52:57;1014.1;;;7.6;100.0
73316;BME280;61545;53.726;-0.444;2023-04-27T06:57:57;1014.0;;;8.2;100.0
73316;BME280;61545;53.726;-0.444;2023-04-27T07:02:57;1014.1;;;8.7;100.0
73316;BME280;61545;53.726;-0.444;2023-04-27T07:08:06;1014.1;;;9.0;100.0
73316;BME280;61545;53.726;-0.444;2023-04-27T07:22:57;1014.0;;;9.4;100.0
73316;BME280;61545;53.726;-0.444;2023-04-27T07:27:54;1014.0;;;9.4;100.0
73316;BME280;61545;53.726;-0.444;2023-04-27T07:32:54;1014.0;;;9.5;100.0
73316;BME280;61545;53.726;-0.444;2023-04-27T07:37:55;1014.0;;;9.3;100.0
73316;BME280;61545;53.726;-0.444;2023-04-27T07:43:05;1013.9;;;9.6;100.0
73316;BME280;61545;53.726;-0.444;2023-04-27T07:48:08;1013.9;;;9.5;100.0
73316;BME280;61545;53.726;-0.444;2023-04-27T07:52:58;1014.0;;;9.8;100.0
73316;BME280;61545;53.726;-0.444;2023-04-27T07:57:55;1014.0;;;10.1;100.0
73316;BME280;61545;53.726;-0.444;2023-04-27T08:02:57;1013.9;;;10.4;100.0
73316;BME280;61545;53.726;-0.444;2023-04-27T08:07:56;1013.9;;;10.7;100.0
73316;BME280;61545;53.726;-0.444;2023-04-27T08:12:59;1013.9;;;11.3;100.0
73316;BME280;61545;53.726;-0.444;2023-04-27T08:17:54;1013.9;;;11.4;100.0
73316;BME280;61545;53.726;-0.444;2023-04-27T08:22:54;1013.9;;;11.4;100.0
73316;BME280;61545;53.726;-0.444;2023-04-27T08:32:57;1013.9;;;10.9;100.0
73316;BME280;61545;53.726;-0.444;2023-04-27T08:37:54;1013.8;;;10.9;100.0
73316;BME280;61545;53.726;-0.444;2023-04-27T08:47:56;1013.7;;;10.6;100.0
73316;BME280;61545;53.726;-0.444;2023-04-27T08:52:54;1013.7;;;10.7;100.0
73316;BME280;61545;53.726;-0.444;2023-04-27T08:57:56;1013.7;;;11.4;100.0
73316;BME280;61545;53.726;-0.444;2023-04-27T09:02:54;1013.6;;;11.7;100.0
73316;BME280;61545;53.726;-0.444;2023-04-27T09:08:07;1013.5;;;11.5;100.0
73316;BME280;61545;53.726;-0.444;2023-04-27T09:13:06;1013.5;;;12.0;100.0
73316;BME280;61545;53.726;-0.444;2023-04-27T09:17:57;1013.4;;;12.1;100.0
73316;BME280;61545;53.726;-0.444;2023-04-27T09:23:05;1013.4;;;11.7;100.0
73316;BME280;61545;53.726;-0.444;2023-04-27T09:32:59;1013.2;;;12.3;100.0
73316;BME280;61545;53.726;-0.444;2023-04-27T09:37:59;1013.1;;;12.1;100.0
73316;BME280;61545;53.726;-0.444;2023-04-27T09:42:59;1013.0;;;12.4;100.0
73316;BME280;61545;53.726;-0.444;2023-04-27T09:47:57;1013.0;;;12.0;100.0
73316;BME280;61545;53.726;-0.444;2023-04-27T09:52:57;1013.0;;;11.9;100.0
73316;BME280;61545;53.726;-0.444;2023-04-27T09:57:59;1013.0;;;11.7;100.0
73316;BME280;61545;53.726;-0.444;2023-04-27T10:03:04;1012.9;;;12.0;100.0
73316;BME280;61545;53.726;-0.444;2023-04-27T10:07:57;1012.9;;;11.7;100.0
73316;BME280;61545;53.726;-0.444;2023-04-27T10:13:19;1012.8;;;11.7;100.0
73316;BME280;61545;53.726;-0.444;2023-04-27T10:18:02;1012.7;;;11.8;100.0
73316;BME280;61545;53.726;-0.444;2023-04-27T10:22:57;1012.7;;;12.0;100.0
73316;BME280;61545;53.726;-0.444;2023-04-27T10:27:58;1012.7;;;11.9;100.0
73316;BME280;61545;53.726;-0.444;2023-04-27T10:32:57;1012.7;;;12.1;100.0
73316;BME280;61545;53.726;-0.444;2023-04-27T10:38:14;1012.7;;;12.4;100.0
73316;BME280;61545;53.726;-0.444;2023-04-27T10:43:13;1012.6;;;12.2;100.0
73316;BME280;61545;53.726;-0.444;2023-04-27T10:48:08;1012.6;;;12.1;100.0
73316;BME280;61545;53.726;-0.444;2023-04-27T10:53:10;1012.6;;;12.4;100.0
73316;BME280;61545;53.726;-0.444;2023-04-27T10:58:21;1012.4;;;12.2;100.0
73316;BME280;61545;53.726;-0.444;2023-04-27T11:03:09;1012.4;;;12.3;100.0
73316;BME280;61545;53.726;-0.444;2023-04-27T11:12:56;1012.2;;;12.6;100.0
73316;BME280;61545;53.726;-0.444;2023-04-27T11:18:05;1012.2;;;12.0;100.0
73316;BME280;61545;53.726;-0.444;2023-04-27T11:22:57;1012.2;;;12.2;100.0
73316;BME280;61545;53.726;-0.444;2023-04-27T11:32:57;1012.1;;;12.1;100.0
73316;BME280;61545;53.726;-0.444;2023-04-27T11:37:59;1012.1;;;11.9;100.0
73316;BME280;61545;53.726;-0.444;2023-04-27T11:43:10;1012.1;;;11.8;100.0
73316;BME280;61545;53.726;-0.444;2023-04-27T11:47:59;1012.0;;;11.9;100.0
73316;BME280;61545;53.726;-0.444;2023-04-27T11:53:27;1012.0;;;11.8;100.0
73316;BME280;61545;53.726;-0.444;2023-04-27T11:58:11;1012.0;;;11.8;100.0
73316;BME280;61545;53.726;-0.444;2023-04-27T12:02:57;1012.0;;;11.6;100.0
73316;BME280;61545;53.726;-0.444;2023-04-27T12:07:56;1012.0;;;11.5;100.0
73316;BME280;61545;53.726;-0.444;2023-04-27T12:12:54;1012.0;;;11.3;100.0
73316;BME280;61545;53.726;-0.444;2023-04-27T12:18:08;1012.0;;;11.5;100.0
73316;BME280;61545;53.726;-0.444;2023-04-27T12:22:57;1011.9;;;11.1;100.0
73316;BME280;61545;53.726;-0.444;2023-04-27T12:32:57;1011.9;;;11.2;100.0
73316;BME280;61545;53.726;-0.444;2023-04-27T12:37:56;1012.0;;;11.3;100.0
73316;BME280;61545;53.726;-0.444;2023-04-27T12:42:54;1012.0;;;11.2;100.0
73316;BME280;61545;53.726;-0.444;2023-04-27T12:47:54;1012.0;;;11.6;100.0
73316;BME280;61545;53.726;-0.444;2023-04-27T12:52:54;1011.9;;;11.6;100.0
73316;BME280;61545;53.726;-0.444;2023-04-27T12:57:57;1011.8;;;11.5;100.0
73316;BME280;61545;53.726;-0.444;2023-04-27T13:02:57;1011.6;;;11.9;100.0
73316;BME280;61545;53.726;-0.444;2023-04-27T13:07:57;1011.6;;;11.9;100.0
73316;BME280;61545;53.726;-0.444;2023-04-27T13:12:56;1011.6;;;11.5;100.0
73316;BME280;61545;53.726;-0.444;2023-04-27T13:17:54;1011.6;;;11.5;100.0
73316;BME280;61545;53.726;-0.444;2023-04-27T13:22:54;1011.5;;;11.4;100.0
73316;BME280;61545;53.726;-0.444;2023-04-27T13:27:54;1011.5;;;11.5;100.0
73316;BME280;61545;53.726;-0.444;2023-04-27T13:32:54;1011.5;;;11.5;100.0
73316;BME280;61545;53.726;-0.444;2023-04-27T13:37:54;1011.6;;;11.4;100.0
73316;BME280;61545;53.726;-0.444;2023-04-27T13:42:54;1011.6;;;11.4;100.0
73316;BME280;61545;53.726;-0.444;2023-04-27T13:47:54;1011.4;;;11.3;100.0
73316;BME280;61545;53.726;-0.444;2023-04-27T13:52:56;1011.4;;;11.4;100.0
73316;BME280;61545;53.726;-0.444;2023-04-27T13:57:54;1011.4;;;11.2;100.0
73316;BME280;61545;53.726;-0.444;2023-04-27T14:03:05;1011.3;;;11.2;100.0
73316;BME280;61545;53.726;-0.444;2023-04-27T14:07:57;1011.4;;;11.3;100.0
73316;BME280;61545;53.726;-0.444;2023-04-27T14:12:55;1011.3;;;11.0;100.0
73316;BME280;61545;53.726;-0.444;2023-04-27T14:17:56;1011.3;;;11.0;100.0
73316;BME280;61545;53.726;-0.444;2023-04-27T14:22:55;1011.2;;;10.8;100.0
73316;BME280;61545;53.726;-0.444;2023-04-27T14:28:08;1011.2;;;10.9;100.0
73316;BME280;61545;53.726;-0.444;2023-04-27T14:32:57;1011.1;;;10.6;100.0
73316;BME280;61545;53.726;-0.444;2023-04-27T14:38:06;1011.0;;;10.7;100.0
73316;BME280;61545;53.726;-0.444;2023-04-27T14:42:57;1011.0;;;10.7;100.0
73316;BME280;61545;53.726;-0.444;2023-04-27T14:47:56;1010.9;;;10.8;100.0
73316;BME280;61545;53.726;-0.444;2023-04-27T14:52:54;1010.8;;;10.6;100.0
73316;BME280;61545;53.726;-0.444;2023-04-27T15:02:59;1010.7;;;10.5;100.0
73316;BME280;61545;53.726;-0.444;2023-04-27T15:07:54;1010.7;;;10.6;100.0
73316;BME280;61545;53.726;-0.444;2023-04-27T15:12:56;1010.6;;;10.5;100.0
73316;BME280;61545;53.726;-0.444;2023-04-27T15:17:54;1010.6;;;10.7;100.0
73316;BME280;61545;53.726;-0.444;2023-04-27T15:22:59;1010.6;;;10.7;100.0
73316;BME280;61545;53.726;-0.444;2023-04-27T15:27:54;1010.4;;;10.6;100.0
73316;BME280;61545;53.726;-0.444;2023-04-27T15:32:56;1010.4;;;10.6;100.0
73316;BME280;61545;53.726;-0.444;2023-04-27T15:37:56;1010.4;;;10.7;100.0
73316;BME280;61545;53.726;-0.444;2023-04-27T15:42:57;1010.3;;;10.9;100.0
73316;BME280;61545;53.726;-0.444;2023-04-27T15:47:54;1010.3;;;10.8;100.0
73316;BME280;61545;53.726;-0.444;2023-04-27T15:53:02;1010.1;;;10.9;100.0
73316;BME280;61545;53.726;-0.444;2023-04-27T15:57:54;1010.1;;;11.0;100.0
73316;BME280;61545;53.726;-0.444;2023-04-27T16:07:57;1009.9;;;11.1;100.0
73316;BME280;61545;53.726;-0.444;2023-04-27T16:22:57;1009.9;;;10.9;100.0
73316;BME280;61545;53.726;-0.444;2023-04-27T16:27:57;1009.9;;;10.7;100.0
73316;BME280;61545;53.726;-0.444;2023-04-27T16:32:54;1009.9;;;10.8;100.0
73316;BME280;61545;53.726;-0.444;2023-04-27T16:37:54;1009.8;;;10.7;100.0
73316;BME280;61545;53.726;-0.444;2023-04-27T16:42:56;1009.8;;;10.6;100.0
73316;BME280;61545;53.726;-0.444;2023-04-27T16:53:08;1009.8;;;10.7;100.0
73316;BME280;61545;53.726;-0.444;2023-04-27T16:57:54;1009.8;;;10.7;100.0
73316;BME280;61545;53.726;-0.444;2023-04-27T17:02:54;1009.7;;;10.7;100.0
73316;BME280;61545;53.726;-0.444;2023-04-27T17:07:57;1009.7;;;10.5;100.0
73316;BME280;61545;53.726;-0.444;2023-04-27T17:12:56;1009.7;;;10.6;100.0
73316;BME280;61545;53.726;-0.444;2023-04-27T17:17:54;1009.7;;;10.5;100.0
73316;BME280;61545;53.726;-0.444;2023-04-27T17:22:54;1009.7;;;10.4;100.0
73316;BME280;61545;53.726;-0.444;2023-04-27T17:27:57;1009.7;;;10.4;100.0
73316;BME280;61545;53.726;-0.444;2023-04-27T17:32:57;1009.8;;;10.0;100.0
73316;BME280;61545;53.726;-0.444;2023-04-27T17:37:54;1009.7;;;10.0;100.0
73316;BME280;61545;53.726;-0.444;2023-04-27T17:42:54;1009.7;;;9.9;100.0
73316;BME280;61545;53.726;-0.444;2023-04-27T17:47:57;1009.7;;;9.7;100.0
73316;BME280;61545;53.726;-0.444;2023-04-27T17:52:56;1009.6;;;9.5;100.0
73316;BME280;61545;53.726;-0.444;2023-04-27T17:57:54;1009.7;;;9.5;100.0
73316;BME280;61545;53.726;-0.444;2023-04-27T18:02:54;1009.7;;;9.6;100.0
73316;BME280;61545;53.726;-0.444;2023-04-27T18:07:54;1009.7;;;9.5;100.0
73316;BME280;61545;53.726;-0.444;2023-04-27T18:12:56;1009.7;;;9.4;100.0
73316;BME280;61545;53.726;-0.444;2023-04-27T18:17:54;1009.6;;;9.2;100.0
73316;BME280;61545;53.726;-0.444;2023-04-27T18:22:56;1009.7;;;9.0;100.0
73316;BME280;61545;53.726;-0.444;2023-04-27T18:27:57;1009.6;;;9.2;100.0
73316;BME280;61545;53.726;-0.444;2023-04-27T18:32:56;1009.6;;;9.0;100.0
73316;BME280;61545;53.726;-0.444;2023-04-27T18:37:56;1009.6;;;8.9;100.0
73316;BME280;61545;53.726;-0.444;2023-04-27T18:42:54;1009.6;;;8.9;100.0
73316;BME280;61545;53.726;-0.444;2023-04-27T18:47:54;1009.6;;;8.7;100.0
73316;BME280;61545;53.726;-0.444;2023-04-27T18:52:54;1009.5;;;8.7;100.0
73316;BME280;61545;53.726;-0.444;2023-04-27T18:58:01;1009.5;;;8.7;100.0
73316;BME280;61545;53.726;-0.444;2023-04-27T19:02:54;1009.4;;;8.8;100.0
73316;BME280;61545;53.726;-0.444;2023-04-27T19:07:54;1009.3;;;8.5;100.0
73316;BME280;61545;53.726;-0.444;2023-04-27T19:17:56;1009.2;;;8.7;100.0
73316;BME280;61545;53.726;-0.444;2023-04-27T19:22:56;1009.2;;;8.6;100.0
73316;BME280;61545;53.726;-0.444;2023-04-27T19:28:02;1009.2;;;8.4;100.0
73316;BME280;61545;53.726;-0.444;2023-04-27T19:32:54;1009.3;;;8.4;100.0
73316;BME280;61545;53.726;-0.444;2023-04-27T19:37:57;1009.3;;;8.4;100.0
73316;BME280;61545;53.726;-0.444;2023-04-27T19:42:59;1009.2;;;8.3;100.0
73316;BME280;61545;53.726;-0.444;2023-04-27T19:47:54;1009.2;;;8.2;100.0
73316;BME280;61545;53.726;-0.444;2023-04-27T19:52:54;1009.1;;;8.3;100.0
73316;BME280;61545;53.726;-0.444;2023-04-27T19:57:57;1009.1;;;8.2;100.0
73316;BME280;61545;53.726;-0.444;2023-04-27T20:02:57;1009.1;;;8.1;100.0
73316;BME280;61545;53.726;-0.444;2023-04-27T20:07:54;1009.0;;;8.1;100.0
73316;BME280;61545;53.726;-0.444;2023-04-27T20:12:55;1008.9;;;7.9;100.0
73316;BME280;61545;53.726;-0.444;2023-04-27T20:17:57;1008.9;;;8.0;100.0
73316;BME280;61545;53.726;-0.444;2023-04-27T20:22:56;1008.9;;;8.0;100.0
73316;BME280;61545;53.726;-0.444;2023-04-27T20:27:56;1008.8;;;8.0;100.0
73316;BME280;61545;53.726;-0.444;2023-04-27T20:32:57;1008.8;;;8.0;100.0
73316;BME280;61545;53.726;-0.444;2023-04-27T20:37:58;1008.7;;;8.2;100.0
73316;BME280;61545;53.726;-0.444;2023-04-27T20:42:54;1008.7;;;8.1;100.0
73316;BME280;61545;53.726;-0.444;2023-04-27T20:47:59;1008.7;;;8.0;100.0
73316;BME280;61545;53.726;-0.444;2023-04-27T20:52:56;1008.7;;;8.1;100.0
73316;BME280;61545;53.726;-0.444;2023-04-27T20:57:57;1008.6;;;8.0;100.0
73316;BME280;61545;53.726;-0.444;2023-04-27T21:02:54;1008.5;;;8.0;100.0
73316;BME280;61545;53.726;-0.444;2023-04-27T21:07:54;1008.5;;;8.0;100.0
73316;BME280;61545;53.726;-0.444;2023-04-27T21:12:56;1008.4;;;7.9;100.0
73316;BME280;61545;53.726;-0.444;2023-04-27T21:27:57;1008.3;;;7.8;100.0
73316;BME280;61545;53.726;-0.444;2023-04-27T21:32:59;1008.3;;;7.9;100.0
73316;BME280;61545;53.726;-0.444;2023-04-27T21:37:59;1008.2;;;7.9;100.0
73316;BME280;61545;53.726;-0.444;2023-04-27T21:42:54;1008.2;;;7.8;100.0
73316;BME280;61545;53.726;-0.444;2023-04-27T21:47:54;1008.1;;;8.0;100.0
73316;BME280;61545;53.726;-0.444;2023-04-27T22:02:54;1007.9;;;7.9;100.0
73316;BME280;61545;53.726;-0.444;2023-04-27T22:07:54;1007.9;;;8.0;100.0
73316;BME280;61545;53.726;-0.444;2023-04-27T22:12:54;1007.9;;;7.9;100.0
73316;BME280;61545;53.726;-0.444;2023-04-27T22:22:57;1007.8;;;7.8;100.0
73316;BME280;61545;53.726;-0.444;2023-04-27T22:27:58;1007.8;;;7.8;100.0
73316;BME280;61545;53.726;-0.444;2023-04-27T22:33:01;1007.7;;;7.8;100.0
73316;BME280;61545;53.726;-0.444;2023-04-27T22:37:57;1007.7;;;7.8;100.0
73316;BME280;61545;53.726;-0.444;2023-04-27T22:42:59;1007.6;;;7.7;100.0
73316;BME280;61545;53.726;-0.444;2023-04-27T22:47:57;1007.6;;;7.7;100.0
73316;BME280;61545;53.726;-0.444;2023-04-27T22:52:57;1007.6;;;7.7;100.0
73316;BME280;61545;53.726;-0.444;2023-04-27T23:02:57;1007.6;;;7.7;100.0
73316;BME280;61545;53.726;-0.444;2023-04-27T23:07:54;1007.6;;;7.7;100.0
73316;BME280;61545;53.726;-0.444;2023-04-27T23:12:56;1007.5;;;7.7;100.0
73316;BME280;61545;53.726;-0.444;2023-04-27T23:17:54;1007.4;;;7.7;100.0
73316;BME280;61545;53.726;-0.444;2023-04-27T23:22:54;1007.3;;;7.7;100.0
73316;BME280;61545;53.726;-0.444;2023-04-27T23:27:57;1007.2;;;7.5;100.0
73316;BME280;61545;53.726;-0.444;2023-04-27T23:32:59;1007.2;;;7.5;100.0
73316;BME280;61545;53.726;-0.444;2023-04-27T23:37:56;1007.2;;;7.5;100.0
73316;BME280;61545;53.726;-0.444;2023-04-27T23:42:56;1007.2;;;7.5;100.0
73316;BME280;61545;53.726;-0.444;2023-04-27T23:47:54;1007.1;;;7.5;100.0
73316;BME280;61545;53.726;-0.444;2023-04-27T23:52:57;1007.0;;;7.5;100.0
73316;BME280;61545;53.726;-0.444;2023-04-27T23:57:58;1006.9;;;7.6;100.0
